createdAt,value
2019-03-03T00:00:46.764Z,62.60
2019-03-03T00:03:16.262Z,72.37
2019-03-03T00:05:45.983Z,68.93
2019-03-03T00:08:15.352Z,72.60
2019-03-03T00:10:44.826Z,59.43
2019-03-03T00:13:14.122Z,77.77
2019-03-03T00:15:43.450Z,57.37
2019-03-03T00:18:13.012Z,61.67
2019-03-03T00:20:42.440Z,65.67
2019-03-03T00:23:11.829Z,61.60
2019-03-03T00:25:41.245Z,62.03
2019-03-03T00:28:10.639Z,64.60
2019-03-03T00:30:40.002Z,60.87
2019-03-03T00:33:09.378Z,74.13
2019-03-03T00:35:38.734Z,65.03
2019-03-03T00:38:23.833Z,70.53
2019-03-03T00:41:11.159Z,59.03
2019-03-03T00:43:58.650Z,65.63
2019-03-03T00:46:35.096Z,59.17
2019-03-03T00:49:29.361Z,80.23
2019-03-03T00:52:10.248Z,63.70
2019-03-03T00:54:50.676Z,66.10
2019-03-03T00:57:32.300Z,77.00
2019-03-03T01:00:23.653Z,73.10
2019-03-03T01:03:01.005Z,74.97
2019-03-03T01:05:49.350Z,72.33
2019-03-03T01:08:30.414Z,83.50
2019-03-03T01:11:12.765Z,70.93
2019-03-03T01:13:55.738Z,74.20
2019-03-03T01:16:47.115Z,75.50
2019-03-03T01:19:27.070Z,74.10
2019-03-03T01:22:04.777Z,65.93
2019-03-03T01:25:02.085Z,68.93
2019-03-03T01:27:31.567Z,84.53
2019-03-03T01:30:00.939Z,78.97
2019-03-03T01:32:30.261Z,55.57
2019-03-03T01:34:59.754Z,92.50
2019-03-03T01:37:29.210Z,115.57
2019-03-03T01:40:00.577Z,77.67
2019-03-03T01:42:29.953Z,94.40
2019-03-03T01:44:59.476Z,102.33
2019-03-03T01:47:28.894Z,91.43
2019-03-03T01:49:58.268Z,84.50
2019-03-03T01:52:27.730Z,72.40
2019-03-03T01:54:57.061Z,96.30
2019-03-03T01:57:26.372Z,92.30
2019-03-03T01:59:55.742Z,98.40
2019-03-03T02:02:25.128Z,68.20
2019-03-03T02:04:54.498Z,87.27
2019-03-03T02:07:23.872Z,102.87
2019-03-03T02:09:53.222Z,103.53
2019-03-03T02:12:22.571Z,79.93
2019-03-03T02:14:51.909Z,88.03
2019-03-03T02:17:21.439Z,109.77
2019-03-03T02:19:50.932Z,98.00
2019-03-03T02:22:20.286Z,102.73
2019-03-03T02:24:49.761Z,100.80
2019-03-03T02:27:19.242Z,69.33
2019-03-03T02:29:48.647Z,94.80
2019-03-03T02:32:17.991Z,101.33
2019-03-03T02:34:47.394Z,98.77
2019-03-03T02:37:16.832Z,91.63
2019-03-03T02:39:46.258Z,101.40
2019-03-03T02:42:15.620Z,117.73
2019-03-03T02:44:45.840Z,82.20
2019-03-03T02:47:15.276Z,97.27
2019-03-03T02:49:44.813Z,106.33
2019-03-03T02:52:14.283Z,97.13
2019-03-03T02:54:43.699Z,112.53
2019-03-03T02:57:13.381Z,111.77
2019-03-03T02:59:42.759Z,110.03
2019-03-03T03:02:26.870Z,118.87
2019-03-03T03:04:56.195Z,116.90
2019-03-03T03:07:37.085Z,90.00
2019-03-03T03:10:15.432Z,93.87
2019-03-03T03:13:19.140Z,101.20
2019-03-03T03:16:05.853Z,113.70
2019-03-03T03:18:43.627Z,101.43
2019-03-03T03:21:38.230Z,118.13
2019-03-03T03:24:45.300Z,137.83
2019-03-03T03:27:35.273Z,107.23
2019-03-03T03:30:33.198Z,77.60
2019-03-03T03:33:20.217Z,96.07
2019-03-03T03:35:54.881Z,95.47
2019-03-03T03:38:35.023Z,120.37
2019-03-03T03:41:18.389Z,120.80
2019-03-03T03:44:00.730Z,120.97
2019-03-03T03:47:04.097Z,113.27
2019-03-03T03:49:48.985Z,95.63
2019-03-03T03:52:37.354Z,125.73
2019-03-03T03:55:26.837Z,127.03
2019-03-03T03:58:03.018Z,110.77
2019-03-03T04:00:50.522Z,102.20
2019-03-03T04:03:48.082Z,78.80
2019-03-03T04:06:40.218Z,122.77
2019-03-03T04:09:26.174Z,114.27
2019-03-03T04:12:23.951Z,108.97
2019-03-03T04:15:18.037Z,84.07
2019-03-03T04:18:07.361Z,83.07
2019-03-03T04:20:54.749Z,130.90
2019-03-03T04:23:33.739Z,108.10
2019-03-03T04:26:14.746Z,120.87
2019-03-03T04:29:01.762Z,118.20
2019-03-03T04:31:40.496Z,120.03
2019-03-03T04:34:17.405Z,123.10
2019-03-03T04:37:20.582Z,118.50
2019-03-03T04:40:08.890Z,113.63
2019-03-03T04:42:48.657Z,118.00
2019-03-03T04:45:41.674Z,104.70
2019-03-03T04:48:18.312Z,114.50
2019-03-03T04:51:08.973Z,102.87
2019-03-03T04:54:03.613Z,104.87
2019-03-03T04:56:50.662Z,117.97
2019-03-03T04:59:37.447Z,79.90
2019-03-03T05:02:37.872Z,124.00
2019-03-03T05:05:42.955Z,113.57
2019-03-03T05:08:37.403Z,81.47
2019-03-03T05:11:24.753Z,78.87
2019-03-03T05:14:19.218Z,103.83
2019-03-03T05:16:58.716Z,113.80
2019-03-03T05:19:35.078Z,121.53
2019-03-03T05:22:04.441Z,90.23
2019-03-03T05:24:34.637Z,104.70
2019-03-03T05:27:04.308Z,109.97
2019-03-03T05:29:33.705Z,115.30
2019-03-03T05:32:03.125Z,123.73
2019-03-03T05:34:32.467Z,121.00
2019-03-03T05:37:01.972Z,123.10
2019-03-03T05:39:31.405Z,116.53
2019-03-03T05:42:00.787Z,89.03
2019-03-03T05:44:30.190Z,113.73
2019-03-03T05:46:59.490Z,123.97
2019-03-03T05:49:29.270Z,105.40
2019-03-03T05:51:58.650Z,118.13
2019-03-03T05:54:28.016Z,133.70
2019-03-03T05:56:57.464Z,130.53
2019-03-03T05:59:26.819Z,71.80
2019-03-03T06:01:56.315Z,115.63
2019-03-03T06:04:25.782Z,120.93
2019-03-03T06:06:55.182Z,128.30
2019-03-03T06:09:24.727Z,112.87
2019-03-03T06:11:54.090Z,116.90
2019-03-03T06:14:23.489Z,128.13
2019-03-03T06:16:52.877Z,127.53
2019-03-03T06:19:22.242Z,127.90
2019-03-03T06:21:51.811Z,131.83
2019-03-03T06:24:21.286Z,133.63
2019-03-03T06:26:50.659Z,139.13
2019-03-03T06:29:20.093Z,139.30
2019-03-03T06:31:50.463Z,137.70
2019-03-03T06:34:19.823Z,134.13
2019-03-03T06:36:49.223Z,123.43
2019-03-03T06:39:18.631Z,141.60
2019-03-03T06:41:48.011Z,122.00
2019-03-03T06:44:17.374Z,74.80
2019-03-03T06:46:46.819Z,145.10
2019-03-03T06:49:16.166Z,132.97
2019-03-03T06:51:45.691Z,92.80
2019-03-03T06:54:15.130Z,125.40
2019-03-03T06:56:44.489Z,114.70
2019-03-03T06:59:13.881Z,105.70
2019-03-03T07:01:43.383Z,94.93
2019-03-03T07:04:12.718Z,141.67
2019-03-03T07:06:42.166Z,117.10
2019-03-03T07:09:11.658Z,95.37
2019-03-03T07:11:41.416Z,144.47
2019-03-03T07:14:11.717Z,141.47
2019-03-03T07:16:41.044Z,144.03
2019-03-03T07:19:10.571Z,139.07
2019-03-03T07:21:42.685Z,97.13
2019-03-03T07:24:11.999Z,99.27
2019-03-03T07:26:41.474Z,128.47
2019-03-03T07:29:10.856Z,109.60
2019-03-03T07:31:40.258Z,126.83
2019-03-03T07:34:09.926Z,144.17
2019-03-03T07:36:39.288Z,116.70
2019-03-03T07:39:17.169Z,131.40
2019-03-03T07:41:46.719Z,133.37
2019-03-03T07:44:16.143Z,112.60
2019-03-03T07:46:45.518Z,93.90
2019-03-03T07:49:14.945Z,74.37
2019-03-03T07:51:44.280Z,96.33
2019-03-03T07:54:13.652Z,112.53
2019-03-03T07:56:43.086Z,115.17
2019-03-03T07:59:12.558Z,100.40
2019-03-03T08:01:41.984Z,102.40
2019-03-03T08:04:11.333Z,116.17
2019-03-03T08:06:41.120Z,92.30
2019-03-03T08:09:11.061Z,93.40
2019-03-03T08:11:40.578Z,84.03
2019-03-03T08:14:09.978Z,65.83
2019-03-03T08:16:39.407Z,87.10
2019-03-03T08:19:08.844Z,83.20
2019-03-03T08:21:38.183Z,61.67
2019-03-03T08:24:07.619Z,93.97
2019-03-03T08:26:37.086Z,106.30
2019-03-03T08:29:06.734Z,88.37
2019-03-03T08:31:36.330Z,93.43
2019-03-03T08:34:05.749Z,71.07
2019-03-03T08:36:35.084Z,78.10
2019-03-03T08:39:05.495Z,70.37
2019-03-03T08:41:36.706Z,59.13
2019-03-03T08:44:09.882Z,70.50
2019-03-03T08:47:01.265Z,72.10
2019-03-03T08:49:39.586Z,82.87
2019-03-03T08:52:23.748Z,85.10
2019-03-03T08:55:27.142Z,97.13
2019-03-03T08:58:09.577Z,65.60
2019-03-03T09:01:03.680Z,68.03
2019-03-03T09:03:39.302Z,73.60
2019-03-03T09:06:33.852Z,82.97
2019-03-03T09:09:22.178Z,62.17
2019-03-03T09:12:10.524Z,59.23
2019-03-03T09:14:51.718Z,73.53
2019-03-03T09:17:37.904Z,90.17
2019-03-03T09:20:27.218Z,80.83
2019-03-03T09:23:15.564Z,88.50
2019-03-03T09:25:55.105Z,94.83
2019-03-03T09:28:42.083Z,76.07
2019-03-03T09:31:29.323Z,85.63
2019-03-03T09:34:06.498Z,90.27
2019-03-03T09:36:55.632Z,80.90
2019-03-03T09:40:08.783Z,77.90
2019-03-03T09:42:55.359Z,67.27
2019-03-03T09:45:56.047Z,89.93
2019-03-03T09:48:50.889Z,81.47
2019-03-03T09:51:51.365Z,67.23
2019-03-03T09:54:28.823Z,81.80
2019-03-03T09:57:15.841Z,69.23
2019-03-03T10:00:13.332Z,78.10
2019-03-03T10:03:00.543Z,67.23
2019-03-03T10:05:47.910Z,75.03
2019-03-03T10:08:26.386Z,56.40
2019-03-03T10:11:11.002Z,74.17
2019-03-03T10:14:18.163Z,63.13
2019-03-03T10:17:12.747Z,63.47
2019-03-03T10:19:49.526Z,57.00
2019-03-03T10:22:27.242Z,56.87
2019-03-03T10:25:30.994Z,65.17
2019-03-03T10:28:28.287Z,59.43
2019-03-03T10:31:06.077Z,45.13
2019-03-03T10:33:58.667Z,56.17
2019-03-03T10:36:45.866Z,55.30
2019-03-03T10:39:21.327Z,54.17
2019-03-03T10:42:00.728Z,60.40
2019-03-03T10:44:48.206Z,52.07
2019-03-03T10:47:35.191Z,53.50
2019-03-03T10:50:16.516Z,51.07
2019-03-03T10:52:54.849Z,44.80
2019-03-03T10:55:30.954Z,49.43
2019-03-03T10:58:26.719Z,45.60
2019-03-03T11:01:07.094Z,56.43
2019-03-03T11:03:54.326Z,61.10
2019-03-03T11:06:42.697Z,56.33
2019-03-03T11:09:47.001Z,63.40
2019-03-03T11:12:27.433Z,53.37
2019-03-03T11:15:18.741Z,55.53
2019-03-03T11:18:09.114Z,51.37
2019-03-03T11:20:58.932Z,48.17
2019-03-03T11:23:55.240Z,57.93
2019-03-03T11:26:40.894Z,56.87
2019-03-03T11:29:41.581Z,51.40
2019-03-03T11:32:15.695Z,48.23
2019-03-03T11:35:13.139Z,56.37
2019-03-03T11:37:50.226Z,59.17
2019-03-03T11:40:38.586Z,67.17
2019-03-03T11:43:25.773Z,53.43
2019-03-03T11:46:14.147Z,48.30
2019-03-03T11:49:02.522Z,66.10
2019-03-03T11:51:49.450Z,65.67
2019-03-03T11:54:31.943Z,62.20
2019-03-03T11:57:17.366Z,64.43
2019-03-03T12:00:20.845Z,61.67
2019-03-03T12:03:12.613Z,78.40
2019-03-03T12:06:00.946Z,60.93
2019-03-03T12:08:52.511Z,83.87
2019-03-03T12:11:37.036Z,77.83
2019-03-03T12:14:16.222Z,87.37
2019-03-03T12:17:00.134Z,95.50
2019-03-03T12:19:43.580Z,71.07
2019-03-03T12:22:23.285Z,93.57
2019-03-03T12:25:32.746Z,84.23
2019-03-03T12:28:23.887Z,47.43
2019-03-03T12:31:17.245Z,67.70
2019-03-03T12:34:08.632Z,49.73
2019-03-03T12:36:58.846Z,46.93
2019-03-03T12:39:46.733Z,63.03
2019-03-03T12:42:38.790Z,56.70
2019-03-03T12:45:18.694Z,78.63
2019-03-03T12:47:56.327Z,75.83
2019-03-03T12:50:43.728Z,62.97
2019-03-03T12:53:38.142Z,56.73
2019-03-03T12:56:29.224Z,68.17
2019-03-03T12:59:16.258Z,74.13
2019-03-03T13:02:09.060Z,58.77
2019-03-03T13:04:50.607Z,65.83
2019-03-03T13:07:45.227Z,62.00
2019-03-03T13:10:32.894Z,52.80
2019-03-03T13:13:17.105Z,56.10
2019-03-03T13:16:05.669Z,62.87
2019-03-03T13:18:44.690Z,47.60
2019-03-03T13:21:42.078Z,62.77
2019-03-03T13:24:30.267Z,53.03
2019-03-03T13:27:17.063Z,55.80
2019-03-03T13:30:04.202Z,57.17
2019-03-03T13:32:52.527Z,57.17
2019-03-03T13:35:30.763Z,61.73
2019-03-03T13:38:18.011Z,53.00
2019-03-03T13:41:15.477Z,67.40
2019-03-03T13:43:47.350Z,75.23
2019-03-03T13:46:16.737Z,64.83
2019-03-03T13:48:52.830Z,58.17
2019-03-03T13:51:22.477Z,71.07
2019-03-03T13:53:51.888Z,72.57
2019-03-03T13:56:21.389Z,63.70
2019-03-03T13:58:50.874Z,58.97
2019-03-03T14:01:20.604Z,57.17
2019-03-03T14:03:49.916Z,40.70
2019-03-03T14:06:19.343Z,73.57
2019-03-03T14:08:48.722Z,54.03
2019-03-03T14:11:27.984Z,78.83
2019-03-03T14:13:57.394Z,78.67
2019-03-03T14:16:26.858Z,74.97
2019-03-03T14:18:56.203Z,46.47
2019-03-03T14:21:27.955Z,60.47
2019-03-03T14:23:57.320Z,80.27
2019-03-03T14:26:26.878Z,56.67
2019-03-03T14:28:56.226Z,67.17
2019-03-03T14:31:25.842Z,60.70
2019-03-03T14:33:55.227Z,82.80
2019-03-03T14:36:24.656Z,67.90
2019-03-03T14:38:54.340Z,48.77
2019-03-03T14:41:23.682Z,68.33
2019-03-03T14:43:55.873Z,57.80
2019-03-03T14:46:25.263Z,67.63
2019-03-03T14:48:54.687Z,57.50
2019-03-03T14:51:24.224Z,64.10
2019-03-03T14:53:53.742Z,78.97
2019-03-03T14:56:23.173Z,80.30
2019-03-03T14:58:52.545Z,82.00
2019-03-03T15:01:22.026Z,81.90
2019-03-03T15:03:51.348Z,61.40
2019-03-03T15:06:24.445Z,70.60
2019-03-03T15:08:51.919Z,54.57
2019-03-03T15:11:21.363Z,76.73
2019-03-03T15:13:50.782Z,54.47
2019-03-03T15:16:20.237Z,64.60
2019-03-03T15:18:49.603Z,74.70
2019-03-03T15:21:25.033Z,75.60
2019-03-03T15:23:50.444Z,95.67
2019-03-03T15:26:21.294Z,63.00
2019-03-03T15:28:50.684Z,67.73
2019-03-03T15:31:20.324Z,75.23
2019-03-03T15:33:50.901Z,63.27
2019-03-03T15:36:20.373Z,68.90
2019-03-03T15:38:49.973Z,73.90
2019-03-03T15:41:19.410Z,67.77
2019-03-03T15:43:48.884Z,74.80
2019-03-03T15:46:18.311Z,70.50
2019-03-03T15:48:47.843Z,65.13
2019-03-03T15:51:17.247Z,72.77
2019-03-03T15:53:46.715Z,66.93
2019-03-03T15:56:16.202Z,75.20
2019-03-03T15:58:55.225Z,66.40
2019-03-03T16:01:17.431Z,57.53
2019-03-03T16:03:46.886Z,62.60
2019-03-03T16:06:16.266Z,56.77
2019-03-03T16:08:45.687Z,50.33
2019-03-03T16:11:15.165Z,53.90
2019-03-03T16:13:44.730Z,43.27
2019-03-03T16:16:14.191Z,42.97
2019-03-03T16:18:45.298Z,49.87
2019-03-03T16:21:14.743Z,39.63
2019-03-03T16:23:44.339Z,44.87
2019-03-03T16:26:13.835Z,44.53
2019-03-03T16:28:43.270Z,39.73
2019-03-03T16:31:12.643Z,47.90
2019-03-03T16:33:41.975Z,39.13
2019-03-03T16:36:11.434Z,42.03
2019-03-03T16:38:40.913Z,41.20
2019-03-03T16:41:10.337Z,38.23
2019-03-03T16:43:40.112Z,45.83
2019-03-03T16:46:09.526Z,32.47
2019-03-03T16:48:39.183Z,38.17
2019-03-03T16:51:08.610Z,34.27
2019-03-03T16:53:38.403Z,38.47
2019-03-03T16:56:07.950Z,37.50
2019-03-03T16:58:37.387Z,37.60
2019-03-03T17:01:06.898Z,30.27
2019-03-03T17:03:36.315Z,40.47
2019-03-03T17:06:05.654Z,41.10
2019-03-03T17:08:35.100Z,42.37
2019-03-03T17:11:04.507Z,41.57
2019-03-03T17:13:33.849Z,42.33
2019-03-03T17:16:03.323Z,37.83
2019-03-03T17:18:32.749Z,43.13
2019-03-03T17:21:02.617Z,38.40
2019-03-03T17:23:32.222Z,43.07
2019-03-03T17:26:04.726Z,48.27
2019-03-03T17:28:34.281Z,45.00
2019-03-03T17:31:03.711Z,34.07
2019-03-03T17:33:33.113Z,40.73
2019-03-03T17:36:02.514Z,34.83
2019-03-03T17:38:31.958Z,40.57
2019-03-03T17:41:01.344Z,28.37
2019-03-03T17:43:32.877Z,36.87
2019-03-03T17:46:02.254Z,33.90
2019-03-03T17:48:31.775Z,29.00
2019-03-03T17:51:01.345Z,40.23
2019-03-03T17:53:30.864Z,30.27
2019-03-03T17:56:00.472Z,36.77
2019-03-03T17:58:30.132Z,33.90
2019-03-03T18:00:59.726Z,32.73
2019-03-03T18:03:29.090Z,32.97
2019-03-03T18:05:58.713Z,37.23
2019-03-03T18:08:28.212Z,37.90
2019-03-03T18:10:57.705Z,44.57
2019-03-03T18:13:27.322Z,38.57
2019-03-03T18:15:56.862Z,39.80
2019-03-03T18:18:26.300Z,29.93
2019-03-03T18:20:55.717Z,32.33
2019-03-03T18:23:25.195Z,34.53
2019-03-03T18:25:54.682Z,29.07
2019-03-03T18:28:25.206Z,27.93
2019-03-03T18:30:54.738Z,34.60
2019-03-03T18:33:24.211Z,28.17
2019-03-03T18:35:53.748Z,38.40
2019-03-03T18:38:23.146Z,39.23
2019-03-03T18:40:52.624Z,40.67
2019-03-03T18:43:22.108Z,43.40
2019-03-03T18:45:51.610Z,48.17
2019-03-03T18:48:20.951Z,44.33
2019-03-03T18:50:50.475Z,33.33
2019-03-03T18:53:19.886Z,45.77
2019-03-03T18:55:49.454Z,45.10
2019-03-03T18:58:19.078Z,45.93
2019-03-03T19:00:48.551Z,43.27
2019-03-03T19:03:17.987Z,42.77
2019-03-03T19:05:55.406Z,40.03
2019-03-03T19:08:18.845Z,36.30
2019-03-03T19:10:48.515Z,44.67
2019-03-03T19:13:18.098Z,41.77
2019-03-03T19:15:47.495Z,45.77
2019-03-03T19:18:16.938Z,41.13
2019-03-03T19:20:46.452Z,45.07
2019-03-03T19:23:15.987Z,52.87
2019-03-03T19:25:45.683Z,49.73
2019-03-03T19:28:15.358Z,47.33
2019-03-03T19:30:44.858Z,44.00
2019-03-03T19:33:20.835Z,46.07
2019-03-03T19:35:50.265Z,30.43
2019-03-03T19:38:19.679Z,29.43
2019-03-03T19:40:49.372Z,29.20
2019-03-03T19:43:18.778Z,32.43
2019-03-03T19:45:48.429Z,39.17
2019-03-03T19:48:17.919Z,41.47
2019-03-03T19:50:47.549Z,38.50
2019-03-03T19:53:17.018Z,40.57
2019-03-03T19:55:47.084Z,42.90
2019-03-03T19:58:16.558Z,44.73
2019-03-03T20:00:46.069Z,41.67
2019-03-03T20:03:15.588Z,39.70
2019-03-03T20:05:44.980Z,43.07
2019-03-03T20:08:14.428Z,44.60
2019-03-03T20:10:43.934Z,39.27
2019-03-03T20:13:13.507Z,39.30
2019-03-03T20:15:42.949Z,47.23
2019-03-03T20:18:12.499Z,46.00
2019-03-03T20:20:41.951Z,37.60
2019-03-03T20:23:13.076Z,43.57
2019-03-03T20:25:42.463Z,49.43
2019-03-03T20:28:11.738Z,41.90
2019-03-03T20:30:42.010Z,50.53
2019-03-03T20:33:11.369Z,44.17
2019-03-03T20:35:40.738Z,45.23
2019-03-03T20:38:10.072Z,49.03
2019-03-03T20:40:39.459Z,54.83
2019-03-03T20:43:08.789Z,50.77
2019-03-03T20:45:38.298Z,50.23
2019-03-03T20:48:08.861Z,54.07
2019-03-03T20:50:38.472Z,47.53
2019-03-03T20:53:07.822Z,47.53
2019-03-03T20:55:37.153Z,58.00
2019-03-03T20:58:06.587Z,56.50
2019-03-03T21:00:36.081Z,58.23
2019-03-03T21:03:05.491Z,53.23
2019-03-03T21:05:34.842Z,44.27
2019-03-03T21:08:04.310Z,56.90
2019-03-03T21:10:33.700Z,47.03
2019-03-03T21:13:03.262Z,50.23
2019-03-03T21:15:32.742Z,53.60
2019-03-03T21:18:02.002Z,53.53
2019-03-03T21:20:31.424Z,54.20
2019-03-03T21:23:00.814Z,48.90
2019-03-03T21:25:30.291Z,56.40
2019-03-03T21:27:59.850Z,54.70
2019-03-03T21:30:29.215Z,54.43
2019-03-03T21:32:58.676Z,54.67
2019-03-03T21:35:28.050Z,51.97
2019-03-03T21:37:58.953Z,49.43
2019-03-03T21:40:28.750Z,51.87
2019-03-03T21:42:58.093Z,52.00
2019-03-03T21:45:27.840Z,53.87
2019-03-03T21:47:57.434Z,48.27
2019-03-03T21:50:26.890Z,50.17
2019-03-03T21:52:56.457Z,50.17
2019-03-03T21:55:26.828Z,53.13
2019-03-03T21:57:56.301Z,47.33
2019-03-03T22:00:34.163Z,48.43
2019-03-03T22:03:03.527Z,47.27
2019-03-03T22:05:33.003Z,45.33
2019-03-03T22:08:02.430Z,43.93
2019-03-03T22:10:32.828Z,48.17
2019-03-03T22:13:07.728Z,43.00
2019-03-03T22:15:37.104Z,47.87
2019-03-03T22:18:06.647Z,33.73
2019-03-03T22:20:36.042Z,46.53
2019-03-03T22:23:05.501Z,42.47
2019-03-03T22:25:34.947Z,51.63
2019-03-03T22:28:04.296Z,35.80
2019-03-03T22:30:33.657Z,45.23
2019-03-03T22:33:03.106Z,44.43
2019-03-03T22:35:32.574Z,56.63
2019-03-03T22:38:01.954Z,45.23
2019-03-03T22:40:31.389Z,46.30
2019-03-03T22:43:00.806Z,48.87
2019-03-03T22:45:30.282Z,40.83
2019-03-03T22:47:59.696Z,51.17
2019-03-03T22:50:29.109Z,34.53
2019-03-03T22:52:58.526Z,50.17
2019-03-03T22:55:29.422Z,45.83
2019-03-03T22:57:58.852Z,47.50
2019-03-03T23:00:52.454Z,44.47
2019-03-03T23:03:43.297Z,38.53
2019-03-03T23:06:24.416Z,38.73
2019-03-03T23:09:25.604Z,45.10
2019-03-03T23:12:17.182Z,41.80
2019-03-03T23:15:15.078Z,46.47
2019-03-03T23:18:21.607Z,36.80
2019-03-03T23:21:29.014Z,40.93
2019-03-03T23:24:25.486Z,42.33
2019-03-03T23:26:54.854Z,39.00
2019-03-03T23:29:24.251Z,40.33
2019-03-03T23:31:53.814Z,48.13
2019-03-03T23:34:23.214Z,46.17
2019-03-03T23:36:52.667Z,42.77
2019-03-03T23:39:22.055Z,43.47
2019-03-03T23:41:51.635Z,45.47
2019-03-03T23:44:20.955Z,42.37
2019-03-03T23:46:50.362Z,39.57
2019-03-03T23:49:19.753Z,41.63
2019-03-03T23:51:49.102Z,40.80
2019-03-03T23:54:18.554Z,30.77
2019-03-03T23:56:47.915Z,41.40
2019-03-03T23:59:17.379Z,41.80
